Time;durP1;ratioP1;P1;durP2;ratioP2;P2;SDS_P1;SDS_P2;PMS_P1;PMS_P2;Temp;Humidity;BMP_temperature;BMP_pressure;BME280_temperature;BME280_humidity;BME280_pressure;Samples;Min_cycle;Max_cycle;Signal;HPM_P1;HPM_P2
2022/11/27 00:01:31;;;;;;;27.13;6.22;;;;;;;3.27;100.00;98791.53;5041007;28;20052;-71
2022/11/27 00:03:58;;;;;;;41.05;7.00;;;4.10;99.90;;;3.02;100.00;98792.22;5041487;28;20068;-72
2022/11/27 00:06:28;;;;;;;199.32;12.52;;;4.00;99.90;;;2.87;100.00;98788.72;5042128;28;20053;-71
2022/11/27 00:08:57;;;;;;;56.58;7.00;;;3.90;99.90;;;3.00;100.00;98784.50;5043539;28;20465;-71
2022/11/27 00:11:27;;;;;;;70.40;7.28;;;3.90;99.90;;;3.06;100.00;98781.16;5044710;28;20144;-70
2022/11/27 00:13:54;;;;;;;132.55;10.18;;;3.90;99.90;;;2.98;100.00;98781.06;5036820;28;20462;-71
2022/11/27 00:16:22;;;;;;;114.75;10.90;;;3.90;99.90;;;3.10;100.00;98773.47;5044138;28;20041;-71
2022/11/27 00:18:50;;;;;;;87.93;7.43;;;3.90;99.90;;;3.09;100.00;98774.31;5042788;28;20770;-70
2022/11/27 00:21:26;;;;;;;54.95;5.85;;;3.90;99.90;;;3.12;100.00;98774.34;5039952;28;20041;-71
2022/11/27 00:23:56;;;;;;;78.10;7.43;;;3.90;99.90;;;3.13;100.00;98767.50;5042378;28;20067;-71
2022/11/27 00:26:24;;;;;;;168.02;11.00;;;3.90;99.90;;;3.07;100.00;98773.44;5039649;28;20045;-71
2022/11/27 00:28:51;;;;;;;33.08;5.57;;;3.90;99.90;;;3.17;100.00;98768.38;5022642;28;20056;-71
2022/11/27 00:31:25;;;;;;;23.80;5.38;;;3.90;99.90;;;3.28;100.00;98761.59;5046031;28;20049;-71
2022/11/27 00:34:01;;;;;;;144.75;11.38;;;4.00;99.90;;;3.14;100.00;98754.66;5044062;28;20075;-71
2022/11/27 00:36:31;;;;;;;14.65;4.63;;;4.00;99.90;;;3.30;100.00;98753.03;5058051;28;20064;-71
2022/11/27 00:38:58;;;;;;;91.93;9.10;;;4.00;99.90;;;3.29;100.00;98755.63;5046975;28;20108;-71
2022/11/27 00:41:30;;;;;;;38.67;5.57;;;4.00;99.90;;;3.32;100.00;98756.47;5041943;28;20053;-71
2022/11/27 00:43:57;;;;;;;19.02;5.32;;;4.10;99.90;;;3.38;100.00;98752.25;5045579;28;20137;-71
2022/11/27 00:46:27;;;;;;;121.22;8.70;;;;;;;3.00;100.00;98743.47;5044319;28;20052;-70
2022/11/27 00:48:57;;;;;;;26.42;4.82;;;4.00;99.90;;;2.98;100.00;98736.63;5059120;28;20057;-71
2022/11/27 00:51:24;;;;;;;85.35;7.28;;;4.00;99.90;;;2.84;100.00;98741.66;5046368;28;20406;-70
2022/11/27 00:53:52;;;;;;;39.22;6.68;;;3.90;99.90;;;2.98;100.00;98727.22;5040390;28;20681;-71
2022/11/27 00:56:23;;;;;;;29.23;5.90;;;3.90;99.90;;;3.04;100.00;98739.22;5043235;28;20482;-72
2022/11/27 00:58:51;;;;;;;99.60;8.65;;;3.90;99.90;;;2.90;100.00;98739.16;5045213;28;20048;-70
2022/11/27 01:01:26;;;;;;;47.17;5.72;;;3.90;99.90;;;2.97;100.00;98738.34;5042851;28;20398;-71
2022/11/27 01:03:55;;;;;;;53.90;7.15;;;3.80;99.90;;;3.05;100.00;98734.09;5061726;28;20550;-71
2022/11/27 01:06:24;;;;;;;18.55;5.20;;;3.80;99.90;;;3.23;100.00;98733.34;5047157;28;20049;-71
2022/11/27 01:08:51;;;;;;;31.33;6.28;;;3.80;99.90;;;3.23;100.00;98740.19;5059608;28;20136;-71
2022/11/27 01:11:28;;;;;;;15.70;5.70;;;3.90;99.90;;;3.30;100.00;98737.66;5043871;28;20049;-71
2022/11/27 01:14:02;;;;;;;10.63;5.13;;;3.90;99.90;;;3.49;100.00;98738.63;5023221;28;20084;-71
2022/11/27 01:16:31;;;;;;;20.35;6.32;;;3.90;99.90;;;3.55;100.00;98740.34;5044538;28;20053;-71
2022/11/27 01:19:00;;;;;;;41.38;8.15;;;4.00;99.90;;;3.18;100.00;98729.91;5046961;28;20115;-70
2022/11/27 01:21:31;;;;;;;20.13;5.38;;;4.00;99.90;;;3.29;100.00;98732.53;5042641;28;20065;-71
2022/11/27 01:23:59;;;;;;;23.00;4.72;;;4.00;99.90;;;3.19;100.00;98729.03;5041083;28;20138;-71
2022/11/27 01:26:26;;;;;;;14.45;5.68;;;4.00;99.90;;;3.27;100.00;98727.38;5043407;28;20048;-71
2022/11/27 01:28:56;;;;;;;39.13;6.82;;;4.00;99.90;;;3.24;100.00;98726.50;5040530;28;20467;-71
2022/11/27 01:31:30;;;;;;;21.23;4.60;;;4.00;99.90;;;3.21;100.00;98718.78;5042054;28;20052;-70
2022/11/27 01:34:04;;;;;;;40.38;5.57;;;4.00;99.90;;;2.96;100.00;98718.66;5046583;28;20060;-70
2022/11/27 01:36:33;;;;;;;15.80;4.43;;;3.90;99.90;;;3.12;100.00;98715.34;5042165;28;20052;-70
2022/11/27 01:39:00;;;;;;;84.43;6.78;;;3.90;99.90;;;2.92;100.00;98714.38;5043561;28;20049;-71
2022/11/27 01:41:38;;;;;;;26.20;4.72;;;3.90;99.90;;;3.11;100.00;98711.06;5045442;28;20068;-70
2022/11/27 01:44:24;;;;;;;77.78;7.68;;;3.90;99.90;;;2.96;100.00;98713.53;5059372;28;20053;-70
2022/11/27 01:47:04;;;;;;;30.52;4.88;;;3.90;99.90;;;2.84;100.00;98721.16;5044458;28;20052;-70
2022/11/27 01:49:46;;;;;;;22.60;4.65;;;4.00;99.90;;;2.99;100.00;98728.06;5059236;28;20516;-71
2022/11/27 01:52:31;;;;;;;48.30;5.97;;;4.00;99.90;;;3.01;100.00;98734.06;5054879;28;20136;-72
2022/11/27 01:55:12;;;;;;;56.70;5.22;;;3.90;99.90;;;2.91;100.00;98740.84;5036576;28;20064;-71
2022/11/27 01:57:47;;;;;;;86.63;6.78;;;3.90;99.90;;;2.87;100.00;98741.66;5045422;28;20071;-71
2022/11/27 02:00:16;;;;;;;47.75;5.10;;;3.80;99.90;;;2.91;100.00;98745.97;5040416;28;20052;-71
2022/11/27 02:02:44;;;;;;;63.22;5.88;;;3.70;99.90;;;2.95;100.00;98741.75;5045263;28;20053;-71
2022/11/27 02:05:22;;;;;;;82.38;6.60;;;3.80;99.90;;;2.99;100.00;98733.19;5045040;28;20532;-71
2022/11/27 02:07:51;;;;;;;17.88;4.35;;;3.80;99.90;;;3.20;100.00;98740.19;5046405;28;20107;-70
2022/11/27 02:10:18;;;;;;;72.57;7.63;;;3.90;99.90;;;3.08;100.00;98736.69;5040452;28;20175;-71
2022/11/27 02:13:06;;;;;;;197.38;12.75;;;4.00;99.90;;;3.04;100.00;98731.53;5044675;28;20131;-70
2022/11/27 02:16:01;;;;;;;220.63;13.73;;;3.90;99.90;;;3.01;100.00;98727.25;5045132;28;20045;-71
2022/11/27 02:19:06;;;;;;;193.00;11.00;;;3.90;99.90;;;2.89;100.00;98722.03;5045793;28;20518;-71
2022/11/27 02:22:10;;;;;;;254.65;11.88;;;3.80;99.90;;;3.01;100.00;98703.28;5044057;28;20104;-71
2022/11/27 02:25:14;;;;;;;325.33;14.63;;;3.80;99.90;;;3.02;100.00;98697.31;5036684;28;20044;-71
2022/11/27 02:28:18;;;;;;;;;;;3.80;99.90;;;3.06;100.00;98699.06;5009324;28;20132;-71
2022/11/27 02:31:03;;;;;;;134.10;9.73;;;3.90;99.90;;;3.03;100.00;98686.19;5044356;28;19940;-71
2022/11/27 02:33:33;;;;;;;86.68;6.20;;;3.90;99.90;;;2.96;100.00;98680.19;5045017;28;20203;-71
2022/11/27 02:36:09;;;;;;;78.00;6.93;;;3.90;99.90;;;2.86;100.00;98684.41;5043487;28;20052;-71
2022/11/27 02:38:48;;;;;;;15.88;4.18;;;3.80;99.90;;;2.95;100.00;98687.88;5043863;28;20414;-70
2022/11/27 02:41:56;;;;;;;34.25;4.55;;;3.70;99.90;;;2.95;100.00;98683.59;5044204;28;20060;-71
2022/11/27 02:44:28;;;;;;;30.85;4.97;;;3.80;99.90;;;3.12;100.00;98681.13;5040688;28;20109;-71
2022/11/27 02:46:55;;;;;;;36.35;5.20;;;3.80;99.90;;;2.97;100.00;98686.19;5043282;28;20418;-71
2022/11/27 02:49:23;;;;;;;64.65;6.50;;;3.80;99.90;;;2.97;100.00;98675.94;5044027;28;20044;-70
2022/11/27 02:51:58;;;;;;;69.68;8.23;;;3.80;99.90;;;3.06;100.00;98676.81;5040341;28;20135;-71
2022/11/27 02:54:28;;;;;;;97.75;7.03;;;3.80;99.90;;;2.89;100.00;98671.59;5035784;28;20120;-71
2022/11/27 02:56:59;;;;;;;125.13;6.55;;;3.80;99.90;;;2.79;100.00;98674.97;5043525;28;20060;-71
2022/11/27 02:59:31;;;;;;;149.43;7.72;;;3.70;99.90;;;2.59;100.00;98672.25;5038683;28;20056;-71
2022/11/27 03:02:05;;;;;;;61.97;3.95;;;3.60;99.90;;;2.53;100.00;98666.22;5038715;28;20056;-71
2022/11/27 03:04:49;;;;;;;64.07;4.95;;;3.50;99.90;;;2.42;100.00;98666.19;5043465;28;20053;-71
2022/11/27 03:07:27;;;;;;;26.60;3.10;;;3.40;99.90;;;2.50;100.00;98646.56;5043199;28;20056;-71
2022/11/27 03:09:59;;;;;;;36.35;3.15;;;3.40;99.90;;;2.62;100.00;98645.78;5041902;28;20522;-71
2022/11/27 03:12:27;;;;;;;202.57;10.43;;;3.40;99.90;;;2.36;100.00;98649.03;5044512;28;20067;-71
2022/11/27 03:14:53;;;;;;;66.28;3.97;;;3.40;99.90;;;2.42;100.00;98640.56;5042568;28;20303;-71
2022/11/27 03:17:51;;;;;;;92.50;4.00;;;3.40;99.90;;;2.36;100.00;98636.22;5044075;28;20139;-71
2022/11/27 03:20:23;;;;;;;294.40;10.93;;;3.30;99.90;;;2.03;100.00;98642.81;5044959;28;20073;-71
2022/11/27 03:22:55;;;;;;;291.08;12.98;;;3.30;99.90;;;2.01;100.00;98631.69;5042804;28;20380;-71
2022/11/27 03:25:23;;;;;;;158.30;7.47;;;3.30;99.90;;;2.07;100.00;98633.44;5043548;28;20041;-71
2022/11/27 03:28:04;;;;;;;53.75;5.70;;;3.20;99.90;;;2.09;100.00;98639.44;5045629;28;20053;-71
2022/11/27 03:30:31;;;;;;;225.38;10.52;;;3.20;99.90;;;2.02;100.00;98627.44;5040884;28;20041;-71
2022/11/27 03:32:59;;;;;;;56.42;5.45;;;3.20;99.90;;;2.08;100.00;98618.09;5044614;28;20045;-70
2022/11/27 03:35:27;;;;;;;200.57;12.10;;;3.10;99.90;;;2.13;100.00;98625.81;5044639;28;20048;-71
2022/11/27 03:37:55;;;;;;;189.00;10.15;;;3.20;99.90;;;1.81;100.00;98625.53;5044301;28;20060;-70
2022/11/27 03:40:31;;;;;;;98.15;5.93;;;3.10;99.90;;;1.88;100.00;98622.19;5044390;28;20041;-71
2022/11/27 03:43:10;;;;;;;51.42;6.43;;;3.00;99.90;;;1.94;100.00;98619.69;5040794;28;20064;-71
2022/11/27 03:45:52;;;;;;;220.52;11.85;;;2.80;99.90;;;1.95;100.00;98620.53;5059685;28;20052;-71
2022/11/27 03:48:47;;;;;;;76.05;6.35;;;2.80;99.90;;;2.19;100.00;98607.06;5041937;28;20142;-71
2022/11/27 03:51:31;;;;;;;94.60;6.97;;;3.00;99.90;;;2.03;100.00;98603.53;5043630;28;20585;-71
2022/11/27 03:54:18;;;;;;;44.28;5.03;;;3.00;99.90;;;2.08;100.00;98599.31;5059913;28;20045;-71
2022/11/27 03:57:01;;;;;;;161.68;9.93;;;3.00;99.90;;;1.60;100.00;98605.72;5041939;28;20064;-71
2022/11/27 03:59:33;;;;;;;188.73;10.63;;;2.90;99.90;;;1.39;100.00;98598.66;5043772;28;20048;-71
2022/11/27 04:01:59;;;;;;;83.57;5.13;;;2.80;99.90;;;1.48;100.00;98603.03;5040705;28;20055;-71
2022/11/27 04:04:26;;;;;;;151.65;9.32;;;2.70;99.90;;;1.25;100.00;98601.97;5041826;28;20364;-70
2022/11/27 04:06:53;;;;;;;217.30;11.90;;;2.60;99.90;;;1.16;100.00;98601.84;5044435;28;20775;-71
2022/11/27 04:09:21;;;;;;;129.43;8.02;;;;;;;1.18;100.00;98583.97;5041895;28;20049;-70
2022/11/27 04:11:48;;;;;;;192.57;11.88;;;;;;;1.17;100.00;98583.13;5043548;28;20060;-71
2022/11/27 04:14:15;;;;;;;223.90;11.98;;;2.40;99.90;;;1.11;100.00;98592.41;5042537;28;20048;-71
2022/11/27 04:16:42;;;;;;;208.15;11.65;;;2.40;99.90;;;0.94;100.00;98582.00;5044549;28;20053;-71
2022/11/27 04:19:08;;;;;;;218.10;11.70;;;2.40;99.90;;;1.04;100.00;98576.13;5043029;28;20044;-70
2022/11/27 04:21:35;;;;;;;120.15;8.93;;;2.30;99.90;;;1.16;100.00;98578.81;5042164;28;20055;-71
2022/11/27 04:24:02;;;;;;;277.17;14.52;;;2.30;99.90;;;1.01;100.00;98571.84;5042998;28;20133;-71
2022/11/27 04:26:29;;;;;;;216.25;11.82;;;2.40;99.90;;;1.09;100.00;98559.13;5043930;28;20446;-71
2022/11/27 04:28:56;;;;;;;149.55;10.32;;;2.30;99.90;;;1.18;100.00;98559.25;5044807;28;20049;-71
2022/11/27 04:31:23;;;;;;;185.68;10.85;;;2.30;99.90;;;1.15;100.00;98555.81;5043097;28;20103;-71
2022/11/27 04:33:50;;;;;;;123.25;10.68;;;2.40;99.90;;;1.13;100.00;98562.59;5043536;28;20060;-71
2022/11/27 04:36:17;;;;;;;94.18;7.22;;;2.40;99.90;;;1.14;100.00;98562.63;5042359;28;21003;-70
2022/11/27 04:38:44;;;;;;;113.05;7.13;;;2.40;99.90;;;1.11;100.00;98561.72;5039931;28;20501;-71
2022/11/27 04:41:10;;;;;;;255.45;13.52;;;2.40;99.90;;;1.00;100.00;98569.28;5044077;28;20054;-71
2022/11/27 04:43:37;;;;;;;194.00;11.77;;;2.30;99.90;;;1.00;100.00;98559.03;5043346;28;20045;-71
2022/11/27 04:46:04;;;;;;;167.35;11.82;;;2.30;99.90;;;1.04;100.00;98564.22;5046638;28;20521;-71
2022/11/27 04:48:31;;;;;;;196.82;14.48;;;2.30;99.90;;;1.15;100.00;98563.47;5041723;28;20045;-71
2022/11/27 04:50:58;;;;;;;52.55;6.07;;;2.30;99.90;;;1.31;100.00;98556.81;5042238;28;20045;-70
2022/11/27 04:53:25;;;;;;;213.15;12.85;;;2.30;99.90;;;1.16;100.00;98563.47;5042930;28;20053;-70
2022/11/27 04:55:52;;;;;;;203.27;14.73;;;2.30;99.90;;;1.22;100.00;98568.66;5044603;28;20049;-71
2022/11/27 04:58:19;;;;;;;120.30;11.68;;;2.40;99.90;;;1.14;100.00;98571.97;5044964;28;20045;-70
2022/11/27 05:00:46;;;;;;;89.68;9.02;;;2.40;99.90;;;1.27;100.00;98578.94;5042587;28;20152;-71
2022/11/27 05:03:13;;;;;;;39.85;7.40;;;2.40;99.90;;;1.42;100.00;98596.16;5043382;28;20048;-71
2022/11/27 05:05:40;;;;;;;10.25;4.80;;;2.40;99.90;;;1.71;100.00;98586.22;5042564;28;20486;-71
2022/11/27 05:08:07;;;;;;;8.50;4.20;;;2.50;99.90;;;1.90;100.00;98592.34;5041750;28;20049;-71
2022/11/27 05:10:34;;;;;;;7.13;3.83;;;2.60;99.90;;;2.01;100.00;98589.88;5042575;28;20049;-70
2022/11/27 05:13:00;;;;;;;7.55;4.22;;;2.70;99.90;;;2.02;100.00;98600.13;5041682;28;20057;-70
2022/11/27 05:15:27;;;;;;;9.15;3.88;;;2.80;99.90;;;2.07;100.00;98590.75;5045299;28;20049;-71
2022/11/27 05:17:54;;;;;;;6.28;3.55;;;2.90;99.90;;;2.20;100.00;98580.63;5047252;28;20049;-71
2022/11/27 05:20:21;;;;;;;6.43;3.65;;;3.00;99.90;;;2.36;100.00;98579.84;5047532;28;20049;-71
2022/11/27 05:22:48;;;;;;;4.88;2.92;;;3.00;99.90;;;2.26;100.00;98576.41;5044524;28;20053;-71
2022/11/27 05:25:17;;;;;;;24.42;5.00;;;3.00;99.90;;;2.17;100.00;98568.66;5047724;28;20045;-71
2022/11/27 05:27:44;;;;;;;17.38;4.65;;;;;;;2.03;100.00;98566.00;5045604;28;20125;-70
2022/11/27 05:30:12;;;;;;;10.15;5.15;;;2.90;99.90;;;2.09;100.00;98552.34;5046486;28;20057;-72
2022/11/27 05:32:39;;;;;;;8.02;4.20;;;2.80;99.90;;;2.02;100.00;98545.47;5046459;28;20037;-71
2022/11/27 05:35:06;;;;;;;10.02;4.93;;;2.80;99.90;;;1.92;100.00;98529.22;5060858;28;20544;-72
2022/11/27 05:37:33;;;;;;;10.68;4.85;;;2.80;99.90;;;1.66;100.00;98524.72;5045569;28;20467;-70
2022/11/27 05:39:59;;;;;;;11.75;5.95;;;2.80;99.90;;;1.35;100.00;98533.00;5047212;28;20049;-71
2022/11/27 05:42:28;;;;;;;10.32;5.35;;;;;;;1.29;100.00;98525.25;5044462;28;20053;-71
2022/11/27 05:44:55;;;;;;;13.75;7.10;;;2.70;99.90;;;1.32;100.00;98535.50;5045383;28;20087;-71
2022/11/27 05:47:24;;;;;;;17.40;8.95;;;2.70;99.90;;;1.40;100.00;98539.00;5047955;28;20045;-71
2022/11/27 05:49:51;;;;;;;14.68;7.40;;;2.70;99.90;;;1.51;100.00;98541.69;5044843;28;20053;-71
2022/11/27 05:52:18;;;;;;;15.18;7.22;;;2.70;99.90;;;1.66;100.00;98542.63;5046015;28;20717;-71
2022/11/27 05:54:45;;;;;;;12.57;6.28;;;2.70;99.90;;;1.99;100.00;98545.47;5044555;28;20056;-71
2022/11/27 05:57:12;;;;;;;9.88;6.07;;;2.80;99.90;;;1.91;100.00;98539.44;5047037;28;20045;-71
2022/11/27 05:59:39;;;;;;;23.30;10.25;;;2.80;99.90;;;1.80;100.00;98545.34;5044796;28;20500;-70
2022/11/27 06:02:05;;;;;;;18.92;9.55;;;2.80;99.90;;;1.68;100.00;98546.06;5056973;28;20536;-71
2022/11/27 06:04:33;;;;;;;10.80;6.80;;;2.70;99.90;;;1.74;100.00;98539.31;5043235;28;20243;-71
2022/11/27 06:07:00;;;;;;;13.35;7.13;;;2.80;99.90;;;2.01;100.00;98524.16;5045105;28;20151;-71
2022/11/27 06:09:27;;;;;;;14.25;6.97;;;2.80;99.90;;;2.09;100.00;98514.78;5045305;28;20431;-71
2022/11/27 06:11:54;;;;;;;12.18;6.90;;;2.90;99.90;;;2.06;100.00;98513.94;5046426;28;20062;-71
2022/11/27 06:14:21;;;;;;;11.95;6.90;;;2.90;99.90;;;1.84;100.00;98515.47;5042223;28;20049;-71
2022/11/27 06:16:48;;;;;;;17.65;8.35;;;2.90;99.90;;;1.63;100.00;98504.22;5043081;28;20084;-71
2022/11/27 06:19:15;;;;;;;14.10;8.00;;;2.90;99.90;;;1.73;100.00;98502.59;5043034;28;20152;-70
2022/11/27 06:21:42;;;;;;;26.42;12.25;;;2.80;99.90;;;1.52;100.00;98497.31;5045846;28;20134;-71
2022/11/27 06:24:10;;;;;;;28.10;10.32;;;2.80;99.90;;;1.50;100.00;98499.84;5046035;28;20125;-71
2022/11/27 06:26:37;;;;;;;21.58;9.55;;;2.80;99.90;;;1.45;100.00;98481.91;5046995;28;20045;-71
2022/11/27 06:29:04;;;;;;;16.92;6.80;;;2.80;99.90;;;1.61;100.00;98472.66;5046720;28;20048;-70
2022/11/27 06:31:32;;;;;;;28.00;10.30;;;2.80;99.90;;;1.52;100.00;98464.06;5041723;28;20049;-71
2022/11/27 06:34:00;;;;;;;24.45;10.18;;;2.80;99.90;;;1.50;100.00;98463.19;5045876;28;20102;-71
2022/11/27 06:36:31;;;;;;;26.23;9.15;;;2.80;99.90;;;1.51;100.00;98464.91;5043058;28;20048;-71
2022/11/27 06:38:58;;;;;;;45.65;10.80;;;2.80;99.90;;;1.42;100.00;98464.00;5043024;28;20056;-71
2022/11/27 06:41:27;;;;;;;61.80;13.98;;;2.80;99.90;;;1.35;100.00;98462.22;5047062;28;20081;-71
2022/11/27 06:43:57;;;;;;;41.58;12.23;;;2.80;99.90;;;1.33;100.00;98466.47;5045216;28;20045;-71
2022/11/27 06:46:26;;;;;;;66.85;14.35;;;2.70;99.90;;;1.38;100.00;98469.06;5045919;28;20045;-72
2022/11/27 06:48:54;;;;;;;50.72;11.68;;;2.70;99.90;;;1.31;100.00;98457.06;5038741;28;20103;-71
2022/11/27 06:51:26;;;;;;;40.75;11.50;;;2.70;99.90;;;1.38;100.00;98456.28;5041050;28;20037;-71
2022/11/27 06:53:53;;;;;;;38.22;13.15;;;2.70;99.90;;;1.37;100.00;98457.97;5058923;28;20080;-70
2022/11/27 06:56:24;;;;;;;28.25;11.32;;;2.70;99.90;;;1.45;100.00;98458.03;5045464;28;20045;-71
2022/11/27 06:58:59;;;;;;;43.90;13.35;;;2.70;99.90;;;1.54;100.00;98462.38;5044339;28;20066;-71
2022/11/27 07:01:28;;;;;;;26.15;11.93;;;2.70;99.90;;;1.68;100.00;98466.72;5043486;28;20145;-71
2022/11/27 07:03:56;;;;;;;16.45;8.38;;;2.80;99.90;;;2.08;100.00;98458.47;5054729;28;20045;-72
2022/11/27 07:06:26;;;;;;;12.45;7.47;;;2.80;99.90;;;2.08;100.00;98451.63;5042577;28;20443;-71
2022/11/27 07:08:54;;;;;;;31.20;14.32;;;2.90;99.90;;;1.81;100.00;98451.47;5060181;28;20139;-71
2022/11/27 07:11:25;;;;;;;24.40;12.60;;;3.00;99.90;;;1.72;100.00;98457.38;5044551;28;20041;-71
2022/11/27 07:13:55;;;;;;;23.20;12.77;;;3.00;99.90;;;1.77;100.00;98462.53;5058740;28;20053;-71
2022/11/27 07:16:24;;;;;;;27.85;14.73;;;2.90;99.90;;;1.74;100.00;98468.50;5046689;28;20510;-71
2022/11/27 07:18:54;;;;;;;32.72;16.30;;;2.90;99.90;;;1.73;100.00;98469.31;5042381;28;20045;-71
2022/11/27 07:21:21;;;;;;;21.85;12.25;;;3.00;99.90;;;1.96;100.00;98474.63;5042035;28;20049;-71
2022/11/27 07:23:48;;;;;;;17.58;10.18;;;3.00;99.90;;;2.29;100.00;98475.63;5045432;28;20049;-70
2022/11/27 07:26:21;;;;;;;16.92;9.05;;;3.10;99.90;;;2.50;100.00;98468.03;5046365;28;20045;-71
2022/11/27 07:28:48;;;;;;;15.40;10.05;;;3.20;99.90;;;2.43;100.00;98465.44;5045579;28;20057;-71
2022/11/27 07:31:22;;;;;;;18.90;11.90;;;3.30;99.90;;;2.57;100.00;98463.78;5041900;28;20416;-71
2022/11/27 07:33:51;;;;;;;21.95;12.40;;;3.40;99.90;;;2.57;100.00;98445.84;5044329;28;20140;-71
2022/11/27 07:36:28;;;;;;;16.58;10.05;;;3.40;99.90;;;2.73;100.00;98436.50;5042704;28;20049;-70
2022/11/27 07:38:56;;;;;;;12.57;8.20;;;3.40;99.90;;;2.87;100.00;98433.97;5043156;28;20580;-71
2022/11/27 07:41:24;;;;;;;22.85;11.85;;;3.50;99.90;;;2.55;100.00;98426.19;5029227;28;20129;-71
2022/11/27 07:43:59;;;;;;;17.13;10.32;;;3.50;99.90;;;2.63;100.00;98415.13;5059515;28;20438;-70
2022/11/27 07:46:26;;;;;;;15.13;9.57;;;3.50;99.90;;;2.53;100.00;98412.50;5043760;28;20053;-71
2022/11/27 07:48:53;;;;;;;15.23;8.82;;;3.60;99.90;;;2.52;100.00;98414.22;5044997;28;20053;-70
2022/11/27 07:51:21;;;;;;;20.17;12.45;;;3.50;99.90;;;2.51;100.00;98417.66;5042454;28;20041;-71
2022/11/27 07:53:50;;;;;;;17.85;12.00;;;3.50;99.90;;;2.14;100.00;98419.22;5042441;28;20064;-71
2022/11/27 07:56:18;;;;;;;19.67;12.82;;;3.60;99.90;;;2.21;100.00;98421.81;5044219;28;20049;-70
2022/11/27 07:58:45;;;;;;;15.40;10.23;;;3.60;99.90;;;2.41;100.00;98424.44;5041253;28;20053;-71
2022/11/27 08:01:16;;;;;;;15.15;10.45;;;3.60;99.90;;;2.29;100.00;98426.97;5043725;28;20418;-71
2022/11/27 08:03:44;;;;;;;16.25;10.30;;;3.60;99.90;;;2.22;100.00;98431.19;5040468;28;20128;-71
2022/11/27 08:06:30;;;;;;;16.30;10.82;;;3.60;99.90;;;2.43;100.00;98439.81;5043460;28;20045;-71
2022/11/27 08:08:57;;;;;;;15.25;8.82;;;3.60;99.90;;;2.79;100.00;98433.97;5040329;28;20049;-71
2022/11/27 08:11:28;;;;;;;16.45;9.02;;;3.70;99.90;;;2.97;100.00;98422.88;5044419;28;20102;-71
2022/11/27 08:13:59;;;;;;;15.55;9.13;;;3.80;99.90;;;3.17;100.00;98417.78;5044054;28;20057;-71
2022/11/27 08:16:27;;;;;;;16.48;10.43;;;4.00;99.90;;;3.36;100.00;98426.31;5046046;28;20160;-70
2022/11/27 08:18:54;;;;;;;14.75;9.38;;;4.10;99.90;;;3.60;100.00;98416.88;5058923;28;20045;-70
2022/11/27 08:21:21;;;;;;;12.63;7.75;;;4.20;99.90;;;3.62;100.00;98416.03;5038703;28;20525;-71
2022/11/27 08:23:48;;;;;;;12.73;7.90;;;4.30;99.90;;;3.44;100.00;98429.72;5041869;28;20049;-70
2022/11/27 08:26:15;;;;;;;11.85;8.57;;;4.40;99.90;;;3.62;100.00;98430.56;5042603;28;20052;-71
2022/11/27 08:28:42;;;;;;;12.60;8.38;;;4.40;99.90;;;3.85;100.00;98428.81;5044921;28;20132;-71
2022/11/27 08:31:12;;;;;;;12.48;8.18;;;4.50;99.90;;;3.97;100.00;98433.09;5044249;28;20048;-71
2022/11/27 08:33:40;;;;;;;10.63;7.93;;;4.60;99.90;;;3.93;100.00;98427.09;5044922;28;20064;-71
2022/11/27 08:36:08;;;;;;;11.52;7.80;;;4.70;99.90;;;3.91;100.00;98422.81;5043315;28;20049;-71
2022/11/27 08:38:43;;;;;;;11.68;8.32;;;4.90;99.90;;;4.14;100.00;98413.31;5045279;28;20134;-71
2022/11/27 08:41:10;;;;;;;12.77;8.40;;;5.00;99.90;;;4.12;100.00;98409.91;5044508;28;20179;-71
2022/11/27 08:43:37;;;;;;;10.40;7.65;;;5.10;99.90;;;4.18;100.00;98393.63;5044965;28;20049;-71
2022/11/27 08:46:05;;;;;;;11.32;7.82;;;5.10;99.90;;;4.36;100.00;98385.00;5044607;28;20059;-71
2022/11/27 08:48:33;;;;;;;12.65;8.57;;;5.20;99.90;;;4.21;100.00;98380.75;5044692;28;20045;-72
2022/11/27 08:51:06;;;;;;;17.83;8.10;;;5.10;99.90;;;3.71;100.00;98376.63;5048080;28;20059;-71
2022/11/27 08:53:34;;;;;;;10.77;7.40;;;5.10;99.90;;;3.64;100.00;98368.09;5048792;28;20079;-71
2022/11/27 08:56:24;;;;;;;13.93;8.30;;;5.10;99.90;;;4.08;100.00;98376.53;5045890;28;20049;-71
2022/11/27 08:58:51;;;;;;;13.35;8.75;;;5.10;99.90;;;3.82;100.00;98372.34;5046818;28;20585;-71
2022/11/27 09:01:28;;;;;;;22.27;15.07;;;5.20;99.90;;;3.82;100.00;98363.78;5044952;28;20060;-71
2022/11/27 09:03:56;;;;;;;40.70;26.38;;;5.30;99.90;;;4.14;100.00;98361.94;5043898;28;20052;-71
2022/11/27 09:06:27;;;;;;;20.13;13.98;;;5.40;99.90;;;4.66;100.00;98358.25;5044910;28;20499;-70
2022/11/27 09:08:59;;;;;;;13.80;8.82;;;5.60;99.90;;;4.21;100.00;98352.50;5061451;28;20057;-70
2022/11/27 09:11:30;;;;;;;21.97;14.20;;;5.60;99.90;;;3.99;100.00;98354.28;5046921;28;20072;-71
2022/11/27 09:14:02;;;;;;;12.43;7.82;;;5.60;99.90;;;3.81;100.00;98355.22;5048228;28;20350;-70
2022/11/27 09:16:29;;;;;;;12.40;8.35;;;5.50;99.90;;;3.77;100.00;98362.06;5062429;28;20716;-70
2022/11/27 09:18:57;;;;;;;15.65;9.85;;;5.50;99.90;;;3.92;100.00;98365.44;5042693;28;20111;-71
2022/11/27 09:21:27;;;;;;;11.48;7.72;;;5.50;99.90;;;3.73;100.00;98362.94;5047387;28;20136;-71
2022/11/27 09:23:58;;;;;;;13.82;8.55;;;5.40;99.90;;;4.33;100.00;98360.16;5046901;28;20164;-70
2022/11/27 09:26:26;;;;;;;12.68;8.63;;;5.40;99.90;;;4.55;100.00;98353.16;5049033;28;20574;-71
2022/11/27 09:28:54;;;;;;;12.20;7.30;;;5.50;99.90;;;4.14;100.00;98353.38;5059342;28;20072;-70
2022/11/27 09:31:22;;;;;;;13.75;7.82;;;5.60;99.90;;;4.17;100.00;98346.53;5047158;28;20060;-71
2022/11/27 09:33:49;;;;;;;11.10;6.13;;;5.50;99.90;;;4.38;100.00;98350.69;5038906;28;20048;-71
2022/11/27 09:36:22;;;;;;;13.27;7.55;;;5.40;99.90;;;4.29;100.00;98350.75;5047823;28;20049;-71
2022/11/27 09:38:49;;;;;;;11.48;6.78;;;5.40;99.90;;;4.05;100.00;98364.53;5039355;28;20526;-71
2022/11/27 09:41:44;;;;;;;11.23;7.15;;;5.60;99.90;;;4.25;100.00;98355.91;5040933;28;20061;-71
2022/11/27 09:44:41;;;;;;;11.75;7.18;;;5.70;99.90;;;4.26;100.00;98362.75;5041524;28;20041;-71
2022/11/27 09:47:40;;;;;;;12.15;7.07;;;5.70;99.90;;;4.30;100.00;98362.72;5038348;28;20057;-71
2022/11/27 09:50:34;;;;;;;12.85;6.97;;;5.90;99.90;;;4.33;100.00;98369.56;5038049;28;20616;-71
2022/11/27 09:53:20;;;;;;;13.80;8.57;;;5.90;99.90;;;4.72;100.00;98365.94;5036984;28;20061;-71
2022/11/27 09:55:51;;;;;;;10.68;7.28;;;6.00;99.90;;;5.01;100.00;98359.69;5042170;28;20044;-71
2022/11/27 09:58:45;;;;;;;10.55;6.72;;;6.10;99.90;;;5.17;100.00;98353.56;5041690;28;20068;-71
2022/11/27 10:01:17;;;;;;;12.75;8.38;;;6.20;99.90;;;5.36;100.00;98351.69;5054532;28;20578;-71
2022/11/27 10:03:45;;;;;;;11.07;7.05;;;6.40;99.90;;;5.18;100.00;98346.72;5038741;28;20048;-70
2022/11/27 10:06:28;;;;;;;11.43;6.22;;;6.50;99.90;;;5.50;100.00;98330.13;5046107;28;20807;-71
2022/11/27 10:09:01;;;;;;;;;;;6.70;99.90;;;5.93;100.00;98312.47;5044091;28;20052;-68
2022/11/27 10:11:55;;;;;;;11.87;5.47;;;7.00;99.90;;;6.13;100.00;98314.78;5047075;28;20274;-71
2022/11/27 10:14:50;;;;;;;9.63;5.40;;;7.20;99.90;;;6.09;100.00;98295.09;5042017;28;20045;-71
2022/11/27 10:17:32;;;;;;;8.65;5.50;;;7.40;99.90;;;6.05;100.00;98285.72;5044987;28;20059;-71
2022/11/27 10:20:27;;;;;;;8.07;5.83;;;7.30;99.90;;;5.83;100.00;98279.94;5038962;28;20088;-70
2022/11/27 10:23:13;;;;;;;9.00;5.82;;;7.10;99.90;;;5.76;100.00;98273.16;5040036;28;20060;-70
2022/11/27 10:25:51;;;;;;;9.68;6.63;;;7.00;99.90;;;5.54;100.00;98273.41;5036107;28;20056;-71
2022/11/27 10:28:45;;;;;;;10.98;5.82;;;7.00;99.90;;;5.68;100.00;98270.69;5058973;28;20053;-70
2022/11/27 10:31:39;;;;;;;12.88;9.27;;;7.10;99.90;;;5.62;100.00;98268.16;5037275;28;20052;-71
2022/11/27 10:34:39;;;;;;;10.25;6.28;;;7.00;99.90;;;5.86;100.00;98256.69;5043272;28;20049;-71
2022/11/27 10:37:44;;;;;;;9.85;5.90;;;7.10;99.90;;;6.16;100.00;98255.47;5042776;28;20495;-70
2022/11/27 10:40:11;;;;;;;8.88;5.20;;;7.20;99.90;;;6.23;100.00;98249.38;5025877;28;20059;-70